sensor_id;sensor_type;location;lat;lon;timestamp;P1;durP1;ratioP1;P2;durP2;ratioP2
8113;SDS011;4099;52.684;9.918;2023-04-03T00:04:22;3.70;;;2.20;;
8113;SDS011;4099;52.684;9.918;2023-04-03T00:09:24;4.63;;;2.67;;
8113;SDS011;4099;52.684;9.918;2023-04-03T00:14:27;4.77;;;2.30;;
8113;SDS011;4099;52.684;9.918;2023-04-03T00:19:29;4.57;;;2.40;;
8113;SDS011;4099;52.684;9.918;2023-04-03T00:24:31;2.70;;;2.30;;
8113;SDS011;4099;52.684;9.918;2023-04-03T00:29:37;7.13;;;2.43;;
8113;SDS011;4099;52.684;9.918;2023-04-03T00:34:39;4.57;;;1.90;;
8113;SDS011;4099;52.684;9.918;2023-04-03T00:39:41;5.60;;;1.73;;
8113;SDS011;4099;52.684;9.918;2023-04-03T00:50:23;3.37;;;1.90;;
8113;SDS011;4099;52.684;9.918;2023-04-03T00:55:25;3.53;;;2.00;;
8113;SDS011;4099;52.684;9.918;2023-04-03T01:00:27;2.87;;;1.50;;
8113;SDS011;4099;52.684;9.918;2023-04-03T01:05:31;3.70;;;1.73;;
8113;SDS011;4099;52.684;9.918;2023-04-03T01:10:33;3.30;;;1.73;;
8113;SDS011;4099;52.684;9.918;2023-04-03T01:15:35;2.93;;;1.10;;
8113;SDS011;4099;52.684;9.918;2023-04-03T01:26:27;3.70;;;1.90;;
8113;SDS011;4099;52.684;9.918;2023-04-03T01:31:31;4.50;;;1.70;;
8113;SDS011;4099;52.684;9.918;2023-04-03T01:36:42;4.33;;;1.80;;
8113;SDS011;4099;52.684;9.918;2023-04-03T01:41:45;5.37;;;1.63;;
8113;SDS011;4099;52.684;9.918;2023-04-03T01:46:55;3.57;;;1.77;;
8113;SDS011;4099;52.684;9.918;2023-04-03T01:51:58;5.03;;;1.60;;
8113;SDS011;4099;52.684;9.918;2023-04-03T01:57:00;3.53;;;1.70;;
8113;SDS011;4099;52.684;9.918;2023-04-03T02:02:03;5.60;;;1.40;;
8113;SDS011;4099;52.684;9.918;2023-04-03T02:07:06;3.13;;;1.60;;
8113;SDS011;4099;52.684;9.918;2023-04-03T02:12:08;3.03;;;1.93;;
8113;SDS011;4099;52.684;9.918;2023-04-03T02:17:12;2.50;;;1.50;;
8113;SDS011;4099;52.684;9.918;2023-04-03T02:22:15;4.50;;;1.40;;
8113;SDS011;4099;52.684;9.918;2023-04-03T02:27:16;2.53;;;1.40;;
8113;SDS011;4099;52.684;9.918;2023-04-03T02:32:20;4.13;;;1.43;;
8113;SDS011;4099;52.684;9.918;2023-04-03T02:37:22;4.07;;;1.77;;
8113;SDS011;4099;52.684;9.918;2023-04-03T02:42:26;5.20;;;1.80;;
8113;SDS011;4099;52.684;9.918;2023-04-03T02:47:31;3.33;;;1.63;;
8113;SDS011;4099;52.684;9.918;2023-04-03T02:52:33;3.87;;;1.30;;
8113;SDS011;4099;52.684;9.918;2023-04-03T02:57:35;4.50;;;1.50;;
8113;SDS011;4099;52.684;9.918;2023-04-03T03:02:39;4.87;;;1.90;;
8113;SDS011;4099;52.684;9.918;2023-04-03T03:07:40;4.57;;;1.30;;
8113;SDS011;4099;52.684;9.918;2023-04-03T03:12:42;5.03;;;2.07;;
8113;SDS011;4099;52.684;9.918;2023-04-03T03:17:45;3.33;;;1.50;;
8113;SDS011;4099;52.684;9.918;2023-04-03T03:22:47;3.60;;;1.87;;
8113;SDS011;4099;52.684;9.918;2023-04-03T03:27:49;7.87;;;1.77;;
8113;SDS011;4099;52.684;9.918;2023-04-03T03:32:52;4.07;;;1.70;;
8113;SDS011;4099;52.684;9.918;2023-04-03T03:37:54;3.03;;;1.40;;
8113;SDS011;4099;52.684;9.918;2023-04-03T03:42:56;4.33;;;2.20;;
8113;SDS011;4099;52.684;9.918;2023-04-03T03:48:00;3.77;;;1.43;;
8113;SDS011;4099;52.684;9.918;2023-04-03T03:53:02;2.97;;;1.33;;
8113;SDS011;4099;52.684;9.918;2023-04-03T03:58:04;3.90;;;1.70;;
8113;SDS011;4099;52.684;9.918;2023-04-03T04:03:09;6.47;;;2.03;;
8113;SDS011;4099;52.684;9.918;2023-04-03T04:08:11;6.07;;;1.83;;
8113;SDS011;4099;52.684;9.918;2023-04-03T04:13:13;1.73;;;1.60;;
8113;SDS011;4099;52.684;9.918;2023-04-03T04:18:17;4.60;;;1.97;;
8113;SDS011;4099;52.684;9.918;2023-04-03T04:23:22;4.77;;;2.43;;
8113;SDS011;4099;52.684;9.918;2023-04-03T04:28:25;6.00;;;2.70;;
8113;SDS011;4099;52.684;9.918;2023-04-03T04:33:30;5.20;;;2.80;;
8113;SDS011;4099;52.684;9.918;2023-04-03T04:38:34;6.40;;;2.50;;
8113;SDS011;4099;52.684;9.918;2023-04-03T04:43:36;7.13;;;2.57;;
8113;SDS011;4099;52.684;9.918;2023-04-03T04:48:40;6.60;;;3.17;;
8113;SDS011;4099;52.684;9.918;2023-04-03T04:53:42;4.43;;;2.17;;
8113;SDS011;4099;52.684;9.918;2023-04-03T04:58:47;5.93;;;2.20;;
8113;SDS011;4099;52.684;9.918;2023-04-03T05:03:53;6.00;;;1.57;;
8113;SDS011;4099;52.684;9.918;2023-04-03T05:08:56;5.00;;;1.73;;
8113;SDS011;4099;52.684;9.918;2023-04-03T05:13:58;4.50;;;1.97;;
8113;SDS011;4099;52.684;9.918;2023-04-03T05:19:03;4.90;;;2.17;;
8113;SDS011;4099;52.684;9.918;2023-04-03T05:24:06;2.97;;;1.70;;
8113;SDS011;4099;52.684;9.918;2023-04-03T05:29:12;6.57;;;2.03;;
8113;SDS011;4099;52.684;9.918;2023-04-03T05:34:16;3.43;;;1.90;;
8113;SDS011;4099;52.684;9.918;2023-04-03T05:39:20;5.17;;;1.70;;
8113;SDS011;4099;52.684;9.918;2023-04-03T05:44:23;3.23;;;2.20;;
8113;SDS011;4099;52.684;9.918;2023-04-03T05:49:27;9.13;;;2.40;;
8113;SDS011;4099;52.684;9.918;2023-04-03T05:54:29;4.07;;;1.83;;
8113;SDS011;4099;52.684;9.918;2023-04-03T05:59:42;6.07;;;2.60;;
8113;SDS011;4099;52.684;9.918;2023-04-03T06:04:46;8.20;;;2.30;;
8113;SDS011;4099;52.684;9.918;2023-04-03T06:09:49;5.20;;;1.57;;
8113;SDS011;4099;52.684;9.918;2023-04-03T06:14:52;9.03;;;2.67;;
8113;SDS011;4099;52.684;9.918;2023-04-03T06:19:55;4.77;;;2.40;;
8113;SDS011;4099;52.684;9.918;2023-04-03T06:24:58;5.93;;;2.70;;
8113;SDS011;4099;52.684;9.918;2023-04-03T06:30:00;8.33;;;2.50;;
8113;SDS011;4099;52.684;9.918;2023-04-03T06:35:04;4.57;;;1.77;;
8113;SDS011;4099;52.684;9.918;2023-04-03T06:40:09;3.90;;;1.80;;
8113;SDS011;4099;52.684;9.918;2023-04-03T06:45:16;6.40;;;2.10;;
8113;SDS011;4099;52.684;9.918;2023-04-03T06:50:19;3.80;;;2.20;;
8113;SDS011;4099;52.684;9.918;2023-04-03T06:55:21;6.20;;;2.00;;
8113;SDS011;4099;52.684;9.918;2023-04-03T07:00:22;6.43;;;2.00;;
8113;SDS011;4099;52.684;9.918;2023-04-03T07:05:26;6.27;;;2.37;;
8113;SDS011;4099;52.684;9.918;2023-04-03T07:10:28;6.17;;;2.00;;
8113;SDS011;4099;52.684;9.918;2023-04-03T07:15:29;4.50;;;1.87;;
8113;SDS011;4099;52.684;9.918;2023-04-03T07:20:32;5.20;;;2.40;;
8113;SDS011;4099;52.684;9.918;2023-04-03T07:25:35;5.03;;;2.47;;
8113;SDS011;4099;52.684;9.918;2023-04-03T07:30:41;7.27;;;2.17;;
8113;SDS011;4099;52.684;9.918;2023-04-03T07:35:48;4.97;;;1.80;;
8113;SDS011;4099;52.684;9.918;2023-04-03T07:40:50;5.20;;;1.87;;
8113;SDS011;4099;52.684;9.918;2023-04-03T07:45:53;5.13;;;2.37;;
8113;SDS011;4099;52.684;9.918;2023-04-03T07:51:00;4.77;;;1.57;;
8113;SDS011;4099;52.684;9.918;2023-04-03T07:56:02;2.90;;;1.33;;
8113;SDS011;4099;52.684;9.918;2023-04-03T08:01:04;2.63;;;1.13;;
8113;SDS011;4099;52.684;9.918;2023-04-03T08:06:08;2.23;;;1.20;;
8113;SDS011;4099;52.684;9.918;2023-04-03T08:11:11;2.00;;;0.90;;
8113;SDS011;4099;52.684;9.918;2023-04-03T08:16:14;2.30;;;1.00;;
8113;SDS011;4099;52.684;9.918;2023-04-03T08:21:19;2.97;;;1.20;;
8113;SDS011;4099;52.684;9.918;2023-04-03T08:26:21;4.60;;;1.20;;
8113;SDS011;4099;52.684;9.918;2023-04-03T08:31:23;5.40;;;1.37;;
8113;SDS011;4099;52.684;9.918;2023-04-03T08:36:27;2.63;;;1.13;;
8113;SDS011;4099;52.684;9.918;2023-04-03T08:41:31;3.40;;;1.03;;
8113;SDS011;4099;52.684;9.918;2023-04-03T08:46:41;2.10;;;1.50;;
8113;SDS011;4099;52.684;9.918;2023-04-03T08:51:51;2.83;;;1.30;;
8113;SDS011;4099;52.684;9.918;2023-04-03T08:56:55;2.03;;;1.03;;
8113;SDS011;4099;52.684;9.918;2023-04-03T09:01:58;3.87;;;1.20;;
8113;SDS011;4099;52.684;9.918;2023-04-03T09:07:07;3.10;;;1.20;;
8113;SDS011;4099;52.684;9.918;2023-04-03T09:12:16;2.37;;;0.93;;
8113;SDS011;4099;52.684;9.918;2023-04-03T09:17:26;2.23;;;0.90;;
8113;SDS011;4099;52.684;9.918;2023-04-03T09:22:40;1.73;;;1.10;;
8113;SDS011;4099;52.684;9.918;2023-04-03T09:27:44;1.57;;;0.77;;
8113;SDS011;4099;52.684;9.918;2023-04-03T09:32:47;2.27;;;0.90;;
8113;SDS011;4099;52.684;9.918;2023-04-03T09:37:52;2.20;;;0.97;;
8113;SDS011;4099;52.684;9.918;2023-04-03T09:42:57;1.30;;;1.10;;
8113;SDS011;4099;52.684;9.918;2023-04-03T09:48:05;1.80;;;0.90;;
8113;SDS011;4099;52.684;9.918;2023-04-03T09:53:24;2.90;;;0.70;;
8113;SDS011;4099;52.684;9.918;2023-04-03T09:58:30;2.10;;;1.00;;
8113;SDS011;4099;52.684;9.918;2023-04-03T10:03:34;2.53;;;1.07;;
8113;SDS011;4099;52.684;9.918;2023-04-03T10:08:40;2.73;;;1.10;;
8113;SDS011;4099;52.684;9.918;2023-04-03T10:13:55;2.10;;;1.00;;
8113;SDS011;4099;52.684;9.918;2023-04-03T10:19:04;3.10;;;1.00;;
8113;SDS011;4099;52.684;9.918;2023-04-03T10:24:20;1.83;;;0.80;;
8113;SDS011;4099;52.684;9.918;2023-04-03T10:29:38;3.70;;;1.00;;
8113;SDS011;4099;52.684;9.918;2023-04-03T10:34:44;1.90;;;1.20;;
8113;SDS011;4099;52.684;9.918;2023-04-03T10:39:50;2.30;;;1.10;;
8113;SDS011;4099;52.684;9.918;2023-04-03T10:45:02;2.17;;;0.90;;
8113;SDS011;4099;52.684;9.918;2023-04-03T10:50:22;2.17;;;1.07;;
8113;SDS011;4099;52.684;9.918;2023-04-03T10:55:37;2.20;;;1.20;;
8113;SDS011;4099;52.684;9.918;2023-04-03T11:00:45;0.90;;;0.90;;
8113;SDS011;4099;52.684;9.918;2023-04-03T11:05:50;2.27;;;1.00;;
8113;SDS011;4099;52.684;9.918;2023-04-03T11:10:56;2.33;;;1.00;;
8113;SDS011;4099;52.684;9.918;2023-04-03T11:16:01;0.87;;;0.77;;
8113;SDS011;4099;52.684;9.918;2023-04-03T11:21:06;2.17;;;1.00;;
8113;SDS011;4099;52.684;9.918;2023-04-03T11:26:11;2.83;;;0.80;;
8113;SDS011;4099;52.684;9.918;2023-04-03T11:31:20;4.20;;;1.30;;
8113;SDS011;4099;52.684;9.918;2023-04-03T11:36:33;2.63;;;0.97;;
8113;SDS011;4099;52.684;9.918;2023-04-03T11:41:42;1.27;;;1.13;;
8113;SDS011;4099;52.684;9.918;2023-04-03T11:46:53;3.23;;;1.20;;
8113;SDS011;4099;52.684;9.918;2023-04-03T11:51:56;2.30;;;1.03;;
8113;SDS011;4099;52.684;9.918;2023-04-03T11:56:59;2.07;;;1.20;;
8113;SDS011;4099;52.684;9.918;2023-04-03T12:02:01;1.13;;;1.03;;
8113;SDS011;4099;52.684;9.918;2023-04-03T12:12:31;1.70;;;1.00;;
8113;SDS011;4099;52.684;9.918;2023-04-03T12:17:35;2.40;;;1.17;;
8113;SDS011;4099;52.684;9.918;2023-04-03T12:22:37;2.23;;;1.57;;
8113;SDS011;4099;52.684;9.918;2023-04-03T12:28:01;1.97;;;1.07;;
8113;SDS011;4099;52.684;9.918;2023-04-03T12:38:48;3.10;;;1.63;;
8113;SDS011;4099;52.684;9.918;2023-04-03T12:44:09;2.23;;;1.17;;
8113;SDS011;4099;52.684;9.918;2023-04-03T12:49:26;2.40;;;1.03;;
8113;SDS011;4099;52.684;9.918;2023-04-03T12:54:37;2.37;;;1.20;;
8113;SDS011;4099;52.684;9.918;2023-04-03T12:59:42;2.03;;;1.07;;
8113;SDS011;4099;52.684;9.918;2023-04-03T13:04:46;3.43;;;1.30;;
8113;SDS011;4099;52.684;9.918;2023-04-03T13:09:54;2.10;;;1.30;;
8113;SDS011;4099;52.684;9.918;2023-04-03T13:15:00;2.77;;;0.90;;
8113;SDS011;4099;52.684;9.918;2023-04-03T13:20:11;1.17;;;0.90;;
8113;SDS011;4099;52.684;9.918;2023-04-03T13:25:15;2.77;;;0.93;;
8113;SDS011;4099;52.684;9.918;2023-04-03T13:30:23;2.40;;;1.23;;
8113;SDS011;4099;52.684;9.918;2023-04-03T13:35:28;1.43;;;1.00;;
8113;SDS011;4099;52.684;9.918;2023-04-03T13:40:32;2.17;;;1.10;;
8113;SDS011;4099;52.684;9.918;2023-04-03T13:45:36;2.40;;;1.40;;
8113;SDS011;4099;52.684;9.918;2023-04-03T13:50:51;3.27;;;1.37;;
8113;SDS011;4099;52.684;9.918;2023-04-03T13:55:59;1.80;;;0.80;;
8113;SDS011;4099;52.684;9.918;2023-04-03T14:01:08;1.30;;;0.90;;
8113;SDS011;4099;52.684;9.918;2023-04-03T14:06:13;1.37;;;1.00;;
8113;SDS011;4099;52.684;9.918;2023-04-03T14:11:18;4.50;;;2.50;;
8113;SDS011;4099;52.684;9.918;2023-04-03T14:16:26;3.10;;;1.23;;
8113;SDS011;4099;52.684;9.918;2023-04-03T14:21:30;3.07;;;1.33;;
8113;SDS011;4099;52.684;9.918;2023-04-03T14:26:32;2.90;;;1.50;;
8113;SDS011;4099;52.684;9.918;2023-04-03T14:31:35;2.00;;;1.13;;
8113;SDS011;4099;52.684;9.918;2023-04-03T14:36:38;2.50;;;1.10;;
8113;SDS011;4099;52.684;9.918;2023-04-03T14:41:41;3.20;;;1.37;;
8113;SDS011;4099;52.684;9.918;2023-04-03T14:46:45;3.40;;;1.50;;
8113;SDS011;4099;52.684;9.918;2023-04-03T14:51:46;3.17;;;1.17;;
8113;SDS011;4099;52.684;9.918;2023-04-03T14:56:48;2.40;;;1.33;;
8113;SDS011;4099;52.684;9.918;2023-04-03T15:01:51;2.07;;;1.37;;
8113;SDS011;4099;52.684;9.918;2023-04-03T15:06:53;2.03;;;1.23;;
8113;SDS011;4099;52.684;9.918;2023-04-03T15:11:55;2.60;;;1.30;;
8113;SDS011;4099;52.684;9.918;2023-04-03T15:16:58;2.90;;;1.47;;
8113;SDS011;4099;52.684;9.918;2023-04-03T15:22:00;2.37;;;1.40;;
8113;SDS011;4099;52.684;9.918;2023-04-03T15:27:01;3.43;;;1.43;;
8113;SDS011;4099;52.684;9.918;2023-04-03T15:32:05;4.83;;;1.90;;
8113;SDS011;4099;52.684;9.918;2023-04-03T15:37:07;1.93;;;1.40;;
8113;SDS011;4099;52.684;9.918;2023-04-03T15:42:08;3.07;;;1.50;;
8113;SDS011;4099;52.684;9.918;2023-04-03T15:47:13;1.73;;;1.20;;
8113;SDS011;4099;52.684;9.918;2023-04-03T15:52:15;3.70;;;2.13;;
8113;SDS011;4099;52.684;9.918;2023-04-03T15:57:17;2.47;;;1.70;;
8113;SDS011;4099;52.684;9.918;2023-04-03T16:02:20;7.33;;;2.70;;
8113;SDS011;4099;52.684;9.918;2023-04-03T16:07:22;4.23;;;2.73;;
8113;SDS011;4099;52.684;9.918;2023-04-03T16:12:24;3.10;;;1.93;;
8113;SDS011;4099;52.684;9.918;2023-04-03T16:17:27;2.77;;;1.63;;
8113;SDS011;4099;52.684;9.918;2023-04-03T16:22:28;4.37;;;1.97;;
8113;SDS011;4099;52.684;9.918;2023-04-03T16:27:31;3.80;;;1.63;;
8113;SDS011;4099;52.684;9.918;2023-04-03T16:32:34;2.20;;;1.60;;
8113;SDS011;4099;52.684;9.918;2023-04-03T16:37:37;2.90;;;1.60;;
8113;SDS011;4099;52.684;9.918;2023-04-03T16:42:39;4.10;;;1.90;;
8113;SDS011;4099;52.684;9.918;2023-04-03T16:47:43;6.57;;;2.57;;
8113;SDS011;4099;52.684;9.918;2023-04-03T16:52:45;1.77;;;1.47;;
8113;SDS011;4099;52.684;9.918;2023-04-03T16:57:46;2.67;;;1.50;;
8113;SDS011;4099;52.684;9.918;2023-04-03T17:02:49;2.37;;;1.40;;
8113;SDS011;4099;52.684;9.918;2023-04-03T17:07:51;4.47;;;3.97;;
8113;SDS011;4099;52.684;9.918;2023-04-03T17:12:53;3.90;;;3.50;;
8113;SDS011;4099;52.684;9.918;2023-04-03T17:17:56;6.03;;;4.80;;
8113;SDS011;4099;52.684;9.918;2023-04-03T17:22:58;5.50;;;2.80;;
8113;SDS011;4099;52.684;9.918;2023-04-03T17:27:59;3.90;;;3.57;;
8113;SDS011;4099;52.684;9.918;2023-04-03T17:33:03;3.83;;;1.97;;
8113;SDS011;4099;52.684;9.918;2023-04-03T17:38:04;1.70;;;1.33;;
8113;SDS011;4099;52.684;9.918;2023-04-03T17:43:06;2.03;;;1.50;;
8113;SDS011;4099;52.684;9.918;2023-04-03T17:48:09;2.30;;;1.47;;
8113;SDS011;4099;52.684;9.918;2023-04-03T17:53:11;2.07;;;1.50;;
8113;SDS011;4099;52.684;9.918;2023-04-03T17:58:14;3.40;;;2.00;;
8113;SDS011;4099;52.684;9.918;2023-04-03T18:03:17;2.50;;;1.43;;
8113;SDS011;4099;52.684;9.918;2023-04-03T18:08:19;3.33;;;2.73;;
8113;SDS011;4099;52.684;9.918;2023-04-03T18:13:22;3.30;;;3.00;;
8113;SDS011;4099;52.684;9.918;2023-04-03T18:18:25;5.57;;;3.80;;
8113;SDS011;4099;52.684;9.918;2023-04-03T18:23:27;5.63;;;4.37;;
8113;SDS011;4099;52.684;9.918;2023-04-03T18:28:32;6.70;;;5.07;;
8113;SDS011;4099;52.684;9.918;2023-04-03T18:33:35;6.13;;;4.63;;
8113;SDS011;4099;52.684;9.918;2023-04-03T18:38:37;4.20;;;3.73;;
8113;SDS011;4099;52.684;9.918;2023-04-03T18:43:39;5.53;;;3.70;;
8113;SDS011;4099;52.684;9.918;2023-04-03T18:48:42;2.80;;;2.40;;
8113;SDS011;4099;52.684;9.918;2023-04-03T18:53:45;4.53;;;2.90;;
8113;SDS011;4099;52.684;9.918;2023-04-03T18:58:46;4.27;;;3.17;;
8113;SDS011;4099;52.684;9.918;2023-04-03T19:03:49;2.87;;;2.20;;
8113;SDS011;4099;52.684;9.918;2023-04-03T19:08:51;4.73;;;2.40;;
8113;SDS011;4099;52.684;9.918;2023-04-03T19:13:53;2.53;;;2.03;;
8113;SDS011;4099;52.684;9.918;2023-04-03T19:18:56;3.67;;;2.20;;
8113;SDS011;4099;52.684;9.918;2023-04-03T19:23:58;4.27;;;2.03;;
8113;SDS011;4099;52.684;9.918;2023-04-03T19:29:00;2.60;;;2.03;;
8113;SDS011;4099;52.684;9.918;2023-04-03T19:34:03;7.70;;;3.77;;
8113;SDS011;4099;52.684;9.918;2023-04-03T19:39:06;7.37;;;4.27;;
8113;SDS011;4099;52.684;9.918;2023-04-03T19:44:07;6.77;;;3.30;;
8113;SDS011;4099;52.684;9.918;2023-04-03T19:49:11;5.93;;;3.27;;
8113;SDS011;4099;52.684;9.918;2023-04-03T19:54:12;3.17;;;1.90;;
8113;SDS011;4099;52.684;9.918;2023-04-03T19:59:14;3.60;;;1.93;;
8113;SDS011;4099;52.684;9.918;2023-04-03T20:04:18;3.70;;;1.90;;
8113;SDS011;4099;52.684;9.918;2023-04-03T20:09:20;4.87;;;2.37;;
8113;SDS011;4099;52.684;9.918;2023-04-03T20:14:21;4.53;;;2.50;;
8113;SDS011;4099;52.684;9.918;2023-04-03T20:19:24;4.83;;;2.30;;
8113;SDS011;4099;52.684;9.918;2023-04-03T20:24:26;3.63;;;2.13;;
8113;SDS011;4099;52.684;9.918;2023-04-03T20:29:28;8.80;;;3.30;;
8113;SDS011;4099;52.684;9.918;2023-04-03T20:34:31;8.30;;;3.67;;
8113;SDS011;4099;52.684;9.918;2023-04-03T20:39:33;7.07;;;3.40;;
8113;SDS011;4099;52.684;9.918;2023-04-03T20:44:35;5.90;;;3.10;;
8113;SDS011;4099;52.684;9.918;2023-04-03T20:49:38;7.23;;;2.60;;
8113;SDS011;4099;52.684;9.918;2023-04-03T20:54:42;5.93;;;2.23;;
8113;SDS011;4099;52.684;9.918;2023-04-03T20:59:44;2.93;;;2.20;;
8113;SDS011;4099;52.684;9.918;2023-04-03T21:04:50;4.03;;;1.70;;
8113;SDS011;4099;52.684;9.918;2023-04-03T21:20:55;2.60;;;1.80;;
8113;SDS011;4099;52.684;9.918;2023-04-03T21:25:57;3.67;;;1.97;;
8113;SDS011;4099;52.684;9.918;2023-04-03T21:31:00;3.33;;;2.00;;
8113;SDS011;4099;52.684;9.918;2023-04-03T21:36:03;1.67;;;1.50;;
8113;SDS011;4099;52.684;9.918;2023-04-03T21:41:05;3.57;;;1.40;;
8113;SDS011;4099;52.684;9.918;2023-04-03T21:46:07;2.13;;;1.57;;
8113;SDS011;4099;52.684;9.918;2023-04-03T21:51:09;2.73;;;1.53;;
8113;SDS011;4099;52.684;9.918;2023-04-03T21:56:11;2.27;;;1.47;;
8113;SDS011;4099;52.684;9.918;2023-04-03T22:01:13;5.40;;;1.80;;
8113;SDS011;4099;52.684;9.918;2023-04-03T22:06:17;5.20;;;1.60;;
8113;SDS011;4099;52.684;9.918;2023-04-03T22:11:19;1.87;;;1.30;;
8113;SDS011;4099;52.684;9.918;2023-04-03T22:16:23;2.10;;;1.63;;
8113;SDS011;4099;52.684;9.918;2023-04-03T22:21:26;3.00;;;1.70;;
8113;SDS011;4099;52.684;9.918;2023-04-03T22:26:28;2.53;;;1.57;;
8113;SDS011;4099;52.684;9.918;2023-04-03T22:31:30;2.73;;;1.40;;
8113;SDS011;4099;52.684;9.918;2023-04-03T22:36:33;1.73;;;1.27;;
8113;SDS011;4099;52.684;9.918;2023-04-03T22:41:35;3.27;;;1.50;;
8113;SDS011;4099;52.684;9.918;2023-04-03T22:46:37;2.73;;;1.70;;
8113;SDS011;4099;52.684;9.918;2023-04-03T22:51:40;2.43;;;1.73;;
8113;SDS011;4099;52.684;9.918;2023-04-03T22:56:42;2.50;;;1.80;;
8113;SDS011;4099;52.684;9.918;2023-04-03T23:01:43;2.77;;;1.93;;
8113;SDS011;4099;52.684;9.918;2023-04-03T23:06:46;3.27;;;2.37;;
8113;SDS011;4099;52.684;9.918;2023-04-03T23:11:48;2.63;;;2.37;;
8113;SDS011;4099;52.684;9.918;2023-04-03T23:16:50;2.90;;;2.47;;
8113;SDS011;4099;52.684;9.918;2023-04-03T23:21:53;3.87;;;2.50;;
8113;SDS011;4099;52.684;9.918;2023-04-03T23:26:55;3.77;;;2.40;;
8113;SDS011;4099;52.684;9.918;2023-04-03T23:31:56;3.67;;;2.43;;
8113;SDS011;4099;52.684;9.918;2023-04-03T23:36:59;4.37;;;2.67;;
8113;SDS011;4099;52.684;9.918;2023-04-03T23:42:01;2.87;;;2.30;;
8113;SDS011;4099;52.684;9.918;2023-04-03T23:47:04;8.23;;;2.40;;
8113;SDS011;4099;52.684;9.918;2023-04-03T23:52:07;5.00;;;2.27;;
8113;SDS011;4099;52.684;9.918;2023-04-03T23:57:09;5.90;;;2.70;;
